Time;durP1;ratioP1;P1;durP2;ratioP2;P2;SDS_P1;SDS_P2;PMS_P1;PMS_P2;Temp;Humidity;BMP_temperature;BMP_pressure;BME280_temperature;BME280_humidity;BME280_pressure;Samples;Min_cycle;Max_cycle;Signal;HPM_P1;HPM_P2
2020/12/11 00:00:49;;;;;;;4.28;3.45;;;;;;;19.86;35.59;98471.69;4992551;28;20026;-74
2020/12/11 00:03:14;;;;;;;4.50;3.55;;;;;;;19.87;35.55;98466.41;4974817;28;20031;-77
2020/12/11 00:05:39;;;;;;;4.20;3.00;;;;;;;19.85;35.62;98462.13;5001029;28;20093;-76
2020/12/11 00:08:08;;;;;;;3.53;2.45;;;;;;;19.84;35.70;98456.00;4992122;28;20113;-78
2020/12/11 00:10:35;;;;;;;4.00;2.90;;;;;;;19.84;35.63;98449.91;4992000;28;20100;-76
2020/12/11 00:13:00;;;;;;;4.03;2.80;;;;;;;19.84;35.56;98449.91;4991658;28;20061;-76
2020/12/11 00:15:25;;;;;;;3.85;2.90;;;;;;;19.83;35.52;98456.09;4991723;28;20069;-74
2020/12/11 00:17:51;;;;;;;3.80;2.47;;;;;;;19.83;35.92;98456.91;4991475;28;20446;-76
2020/12/11 00:20:16;;;;;;;3.88;2.60;;;;;;;19.84;35.65;98455.16;4991778;28;20034;-74
2020/12/11 00:22:41;;;;;;;3.63;2.92;;;;;;;19.85;35.60;98456.88;4991998;28;20630;-75
2020/12/11 00:25:07;;;;;;;3.35;2.50;;;;;;;19.85;35.65;98448.97;5007193;28;20033;-73
2020/12/11 00:27:33;;;;;;;3.30;2.50;;;;;;;19.83;35.70;98445.56;5004614;28;20052;-76
2020/12/11 00:29:58;;;;;;;3.40;2.55;;;;;;;19.81;35.87;98450.03;5011516;28;20030;-76
2020/12/11 00:32:24;;;;;;;3.53;2.38;;;;;;;19.81;35.55;98445.63;5011031;28;20117;-75
2020/12/11 00:34:49;;;;;;;4.38;2.70;;;;;;;19.81;35.68;98435.09;5011406;28;20525;-75
2020/12/11 00:37:15;;;;;;;4.32;2.75;;;;;;;19.80;35.80;98433.41;4992096;28;20050;-75
2020/12/11 00:39:41;;;;;;;5.05;2.72;;;;;;;19.80;35.60;98429.94;4999453;28;20034;-74
2020/12/11 00:42:06;;;;;;;2.95;2.35;;;;;;;19.78;35.55;98425.59;5011341;28;20038;-74
2020/12/11 00:44:32;;;;;;;3.75;2.65;;;;;;;19.80;35.50;98408.91;5009839;28;20045;-72
2020/12/11 00:47:02;;;;;;;5.72;2.90;;;;;;;19.77;35.76;98405.50;5012094;28;20060;-77
2020/12/11 00:49:27;;;;;;;2.88;2.17;;;;;;;19.78;35.46;98399.31;5014827;28;20038;-75
2020/12/11 00:51:56;;;;;;;3.88;2.47;;;;;;;19.78;35.53;98391.44;4996950;28;20467;-75
2020/12/11 00:54:21;;;;;;;3.38;2.60;;;;;;;19.76;35.55;98387.19;5014788;28;20113;-75
2020/12/11 00:56:47;;;;;;;3.45;2.30;;;;;;;19.77;35.40;98389.72;5014839;28;20117;-76
2020/12/11 00:59:13;;;;;;;3.50;2.85;;;;;;;19.77;35.58;98392.38;5013608;28;20037;-74
2020/12/11 01:01:38;;;;;;;3.85;2.40;;;;;;;19.77;35.80;98392.38;5014014;28;20498;-75
2020/12/11 01:04:04;;;;;;;3.72;2.53;;;;;;;19.76;35.49;98384.56;5014774;28;20112;-73
2020/12/11 01:06:30;;;;;;;4.85;2.60;;;;;;;19.77;35.44;98373.97;5013427;28;20514;-75
2020/12/11 01:08:55;;;;;;;3.70;2.60;;;;;;;19.78;35.48;98372.16;5014574;28;20033;-75
2020/12/11 01:11:21;;;;;;;3.42;2.75;;;;;;;19.76;35.55;98361.75;4998784;28;20104;-74
2020/12/11 01:13:46;;;;;;;3.50;2.88;;;;;;;19.77;35.50;98352.94;4995971;28;20510;-75
2020/12/11 01:16:11;;;;;;;3.63;2.70;;;;;;;19.77;35.55;98350.31;4994926;28;20038;-74
2020/12/11 01:18:37;;;;;;;3.38;2.40;;;;;;;19.78;35.56;98343.25;4999971;28;20041;-74
2020/12/11 01:21:02;;;;;;;3.65;2.75;;;;;;;19.77;35.38;98336.34;5005541;28;20038;-75
2020/12/11 01:23:27;;;;;;;3.63;2.30;;;;;;;19.76;35.55;98335.47;4993420;28;20507;-74
2020/12/11 01:25:53;;;;;;;3.40;2.55;;;;;;;19.75;35.57;98322.41;4994559;28;20044;-76
2020/12/11 01:28:19;;;;;;;4.20;2.40;;;;;;;19.76;35.43;98322.31;4994720;28;20117;-76
2020/12/11 01:30:44;;;;;;;4.28;3.00;;;;;;;19.75;35.38;98304.84;4992897;28;20105;-74
2020/12/11 01:33:10;;;;;;;3.92;2.47;;;;;;;19.76;35.55;98296.03;4993220;28;20039;-75
2020/12/11 01:35:35;;;;;;;4.13;2.78;;;;;;;19.74;35.52;98274.25;4992947;28;20046;-76
2020/12/11 01:38:00;;;;;;;2.85;2.40;;;;;;;19.77;35.41;98289.03;4994522;28;20027;-75
2020/12/11 01:40:26;;;;;;;3.00;2.22;;;;;;;19.76;35.42;98271.56;5008481;28;20375;-76
2020/12/11 01:42:52;;;;;;;3.33;2.65;;;;;;;19.75;35.48;98264.59;5013746;28;20045;-74
2020/12/11 01:45:17;;;;;;;3.75;2.63;;;;;;;19.75;35.36;98256.72;5013265;28;20112;-74
2020/12/11 01:47:43;;;;;;;3.35;2.78;;;;;;;19.76;35.43;98247.91;5013918;28;20069;-75
2020/12/11 01:50:18;;;;;;;3.17;2.25;;;;;;;19.76;35.34;98258.41;5013380;28;20034;-74
2020/12/11 01:52:50;;;;;;;4.78;2.72;;;;;;;19.73;35.24;98251.50;5012480;28;20074;-74
2020/12/11 01:55:15;;;;;;;3.10;2.25;;;;;;;19.74;35.23;98247.97;5012351;28;20379;-74
2020/12/11 01:58:00;;;;;;;2.90;2.58;;;;;;;19.72;35.44;98244.56;5012959;28;20087;-74
2020/12/11 02:00:26;;;;;;;3.13;2.60;;;;;;;19.74;35.48;98236.63;5011716;28;20042;-76
2020/12/11 02:03:03;;;;;;;3.35;2.40;;;;;;;19.72;35.29;98241.09;5011758;28;20416;-76
2020/12/11 02:05:29;;;;;;;3.58;2.80;;;;;;;19.74;35.32;98241.88;5002538;28;20077;-75
2020/12/11 02:07:56;;;;;;;3.40;2.58;;;;;;;19.74;35.51;98228.72;4992473;28;20057;-75
2020/12/11 02:10:22;;;;;;;2.88;2.10;;;;;;;19.73;35.23;98225.25;4992357;28;20034;-75
2020/12/11 02:12:48;;;;;;;4.10;2.67;;;;;;;19.74;35.22;98226.94;5007722;28;20411;-74
2020/12/11 02:15:14;;;;;;;3.20;2.50;;;;;;;19.74;35.37;98229.56;5002236;28;20046;-75
2020/12/11 02:17:39;;;;;;;2.75;2.17;;;;;;;19.73;35.35;98229.66;5011881;28;20053;-75
2020/12/11 02:20:05;;;;;;;2.60;2.20;;;;;;;19.74;35.51;98234.81;5012931;28;20038;-75
2020/12/11 02:22:30;;;;;;;3.45;2.28;;;;;;;19.75;35.21;98226.00;5012005;28;20042;-75
2020/12/11 02:24:56;;;;;;;3.53;2.42;;;;;;;19.74;35.37;98215.59;5011833;28;20060;-76
2020/12/11 02:27:21;;;;;;;3.63;2.30;;;;;;;19.75;35.24;98212.88;5012986;28;20034;-75
2020/12/11 02:29:46;;;;;;;3.03;2.58;;;;;;;19.73;35.22;98211.25;5012662;28;20040;-76
2020/12/11 02:32:16;;;;;;;3.00;2.05;;;;;;;19.73;35.19;98214.72;5011184;28;20038;-76
2020/12/11 02:34:43;;;;;;;3.80;2.35;;;;;;;19.73;35.23;98233.13;5012290;28;20048;-76
2020/12/11 02:37:11;;;;;;;3.17;2.60;;;;;;;19.74;35.08;98229.56;5012781;28;20044;-74
2020/12/11 02:39:37;;;;;;;3.05;2.45;;;;;;;19.74;35.31;98233.97;5005065;28;20034;-75
2020/12/11 02:42:02;;;;;;;3.28;2.60;;;;;;;19.74;35.21;98245.34;4992977;28;20081;-75
2020/12/11 02:44:28;;;;;;;3.45;2.20;;;;;;;19.74;35.28;98247.97;4992890;28;20030;-74
2020/12/11 02:46:53;;;;;;;4.00;2.50;;;;;;;19.74;35.11;98255.84;4992866;28;20116;-77
2020/12/11 02:49:19;;;;;;;4.40;2.10;;;;;;;19.74;34.99;98258.47;4991982;28;20069;-75
2020/12/11 02:51:44;;;;;;;3.05;2.50;;;;;;;19.73;35.43;98263.81;4997178;28;20030;-73
2020/12/11 02:54:09;;;;;;;3.53;2.50;;;;;;;19.73;35.42;98258.56;5012644;28;20109;-74
2020/12/11 02:56:35;;;;;;;3.30;2.33;;;;;;;19.72;35.03;98243.72;5012108;28;20108;-76
2020/12/11 02:59:00;;;;;;;4.53;2.40;;;;;;;19.72;35.30;98239.31;5011378;28;20495;-75
2020/12/11 03:01:26;;;;;;;3.17;2.35;;;;;;;19.71;35.51;98236.75;5010829;28;20054;-75
2020/12/11 03:03:51;;;;;;;3.33;2.30;;;;;;;19.72;35.30;98238.47;5012388;28;20120;-75
2020/12/11 03:06:17;;;;;;;2.90;2.35;;;;;;;19.71;35.16;98229.72;5012023;28;20077;-75
2020/12/11 03:08:42;;;;;;;2.97;2.35;;;;;;;19.71;34.86;98221.84;5027044;28;20034;-76
2020/12/11 03:11:08;;;;;;;3.45;2.35;;;;;;;19.72;34.96;98207.75;4991831;28;20504;-75
2020/12/11 03:13:33;;;;;;;2.55;2.17;;;;;;;19.73;35.30;98213.88;4992328;28;20487;-75
2020/12/11 03:15:59;;;;;;;3.70;2.55;;;;;;;19.71;35.32;98195.56;4991483;28;20114;-75
2020/12/11 03:18:24;;;;;;;3.72;2.28;;;;;;;19.72;35.26;98192.00;4992634;28;20034;-76
2020/12/11 03:20:49;;;;;;;2.95;2.35;;;;;;;19.73;35.23;98182.34;4991499;28;20450;-74
2020/12/11 03:23:15;;;;;;;2.70;2.15;;;;;;;19.70;35.18;98167.56;4992543;28;20474;-76
2020/12/11 03:25:40;;;;;;;3.10;2.35;;;;;;;19.72;35.09;98157.84;4992403;28;20034;-74
2020/12/11 03:28:05;;;;;;;2.35;2.05;;;;;;;19.71;35.10;98150.88;4993913;28;20034;-77
2020/12/11 03:30:31;;;;;;;3.63;2.35;;;;;;;19.72;35.08;98138.59;4994576;28;20030;-74
2020/12/11 03:32:56;;;;;;;2.83;2.22;;;;;;;19.72;34.96;98136.81;4998235;28;20073;-76
2020/12/11 03:35:22;;;;;;;3.53;2.50;;;;;;;19.72;35.10;98133.34;4998283;28;20042;-74
2020/12/11 03:37:47;;;;;;;2.75;2.00;;;;;;;19.72;35.15;98123.69;4992464;28;20030;-74
2020/12/11 03:40:13;;;;;;;3.03;2.25;;;;;;;19.72;35.16;98118.41;5004243;28;20168;-77
2020/12/11 03:42:38;;;;;;;2.50;2.03;;;;;;;19.72;35.22;98107.91;5010609;28;20037;-77
2020/12/11 03:45:05;;;;;;;2.92;2.10;;;;;;;19.72;35.03;98107.91;5011669;28;20092;-74
2020/12/11 03:47:31;;;;;;;3.47;2.22;;;;;;;19.72;35.26;98101.81;5011787;28;20062;-75
2020/12/11 03:49:57;;;;;;;2.70;2.30;;;;;;;19.72;35.19;98093.94;5011780;28;20038;-75
2020/12/11 03:52:27;;;;;;;2.92;2.15;;;;;;;19.71;35.03;98087.81;5027069;28;20494;-75
2020/12/11 03:54:52;;;;;;;3.13;2.28;;;;;;;19.72;35.03;98079.00;5011714;28;20029;-74
2020/12/11 03:57:17;;;;;;;3.22;2.20;;;;;;;19.72;35.06;98076.38;5011835;28;20136;-74
2020/12/11 03:59:43;;;;;;;3.25;2.42;;;;;;;19.73;34.97;98079.88;5006588;28;20034;-74
2020/12/11 04:02:12;;;;;;;2.28;1.80;;;;;;;19.73;35.19;98085.97;5011516;28;20143;-76
2020/12/11 04:04:39;;;;;;;3.33;2.25;;;;;;;19.73;34.87;98078.06;4993973;28;20035;-74
2020/12/11 04:07:04;;;;;;;5.63;2.47;;;;;;;19.75;34.80;98075.38;4997761;28;20034;-75
2020/12/11 04:09:29;;;;;;;3.90;2.10;;;;;;;19.74;35.10;98058.75;4994532;28;20026;-73
2020/12/11 04:11:55;;;;;;;3.35;2.45;;;;;;;19.73;35.10;98058.84;4994329;28;20062;-76
2020/12/11 04:14:20;;;;;;;3.30;2.35;;;;;;;19.73;35.08;98041.28;5004972;28;20037;-75
2020/12/11 04:16:49;;;;;;;3.47;2.22;;;;;;;19.70;35.13;98036.19;5011442;28;20030;-76
2020/12/11 04:19:14;;;;;;;2.78;2.00;;;;;;;19.71;35.08;98037.06;5010770;28;20453;-77
2020/12/11 04:21:46;;;;;;;3.17;2.03;;;;;;;19.71;34.99;98039.69;5012700;28;20032;-76
2020/12/11 04:24:12;;;;;;;3.28;2.20;;;;;;;19.73;35.05;98038.66;5015265;28;20506;-74
2020/12/11 04:26:37;;;;;;;2.63;1.90;;;;;;;19.72;35.07;98039.59;5015323;28;20065;-78
2020/12/11 04:29:02;;;;;;;4.20;2.08;;;;;;;19.72;35.06;98034.31;5014229;28;20034;-74
2020/12/11 04:31:28;;;;;;;2.92;1.77;;;;;;;19.72;35.10;98018.56;5015113;28;20038;-75
2020/12/11 04:33:53;;;;;;;2.42;1.80;;;;;;;19.72;35.05;98015.09;5015281;28;20042;-74
2020/12/11 04:36:19;;;;;;;2.72;1.92;;;;;;;19.73;35.12;98008.91;5014039;28;20022;-73
2020/12/11 04:38:46;;;;;;;2.90;2.17;;;;;;;19.70;35.26;98015.16;5013266;28;20034;-74
2020/12/11 04:41:13;;;;;;;2.95;2.10;;;;;;;19.73;34.80;97995.78;4995721;28;20065;-74
2020/12/11 04:43:39;;;;;;;3.05;1.95;;;;;;;19.71;34.96;97993.22;4993973;28;20037;-76
2020/12/11 04:46:06;;;;;;;2.83;1.98;;;;;;;19.72;34.99;97978.31;4995145;28;20122;-74
2020/12/11 04:48:33;;;;;;;2.70;2.20;;;;;;;19.72;35.02;97973.88;4994212;28;20026;-76
2020/12/11 04:51:01;;;;;;;2.83;1.80;;;;;;;19.71;34.87;97960.84;4995329;28;20038;-77
2020/12/11 04:53:32;;;;;;;2.35;1.70;;;;;;;19.71;35.06;97959.06;4995071;28;20038;-74
2020/12/11 04:55:58;;;;;;;2.10;1.70;;;;;;;19.73;35.10;97946.69;4995383;28;20030;-74
2020/12/11 04:58:26;;;;;;;2.08;1.60;;;;;;;19.71;35.05;97937.19;4998923;28;20050;-76
2020/12/11 05:00:52;;;;;;;2.60;2.08;;;;;;;19.71;35.12;97939.81;4994695;28;20043;-75
2020/12/11 05:03:17;;;;;;;3.08;1.88;;;;;;;19.74;34.89;97932.63;4995285;28;20113;-75
2020/12/11 05:05:43;;;;;;;3.65;2.28;;;;;;;19.72;34.99;97942.34;4994697;28;20125;-76
2020/12/11 05:08:19;;;;;;;2.58;1.98;;;;;;;19.72;34.99;97934.47;4994913;28;20071;-76
2020/12/11 05:10:46;;;;;;;3.00;2.03;;;;;;;19.71;35.08;97921.44;4994977;28;20465;-73
2020/12/11 05:13:18;;;;;;;2.25;1.80;;;;;;;19.69;34.92;97918.91;5001361;28;20088;-75
2020/12/11 05:15:44;;;;;;;2.20;1.88;;;;;;;19.69;34.74;97924.16;5014164;28;20510;-77
2020/12/11 05:18:19;;;;;;;2.80;2.10;;;;;;;19.67;35.10;97912.00;5013038;28;20097;-75
2020/12/11 05:20:44;;;;;;;2.40;1.75;;;;;;;19.67;35.12;97902.38;5011593;28;20037;-76
2020/12/11 05:23:11;;;;;;;2.45;1.73;;;;;;;19.67;34.96;97897.13;5013177;28;20041;-75
2020/12/11 05:25:36;;;;;;;3.05;1.90;;;;;;;19.69;34.78;97890.00;5010398;28;20042;-77
2020/12/11 05:28:02;;;;;;;2.58;1.85;;;;;;;19.69;35.07;97892.63;4993867;28;20039;-75
2020/12/11 05:30:27;;;;;;;2.85;2.00;;;;;;;19.70;35.07;97893.47;4994474;28;20035;-74
2020/12/11 05:32:57;;;;;;;2.30;1.80;;;;;;;19.69;34.94;97882.13;4993448;28;20537;-76
2020/12/11 05:35:26;;;;;;;2.83;2.15;;;;;;;19.70;34.94;97881.16;4994055;28;20038;-74
2020/12/11 05:38:04;;;;;;;2.78;2.00;;;;;;;19.72;34.94;97884.56;4992096;28;20423;-74
2020/12/11 05:40:30;;;;;;;3.03;2.10;;;;;;;19.72;35.00;97884.56;4994654;28;20030;-73
2020/12/11 05:43:16;;;;;;;2.75;2.20;;;;;;;19.70;35.06;97891.66;4995794;28;20092;-74
2020/12/11 05:45:55;;;;;;;3.13;2.13;;;;;;;19.69;34.95;97882.13;4995506;28;20685;-75
2020/12/11 05:48:42;;;;;;;2.20;1.88;;;;;;;19.70;34.99;97877.69;5002828;28;20034;-75
2020/12/11 05:51:16;;;;;;;3.15;2.13;;;;;;;19.70;34.93;97875.06;4993944;28;20081;-76
2020/12/11 05:53:42;;;;;;;2.53;1.83;;;;;;;19.70;35.25;97872.44;4993191;28;20590;-74
2020/12/11 05:56:07;;;;;;;2.47;1.83;;;;;;;19.70;34.75;97865.38;4994083;28;20038;-74
2020/12/11 05:58:33;;;;;;;2.63;1.90;;;;;;;19.71;35.18;97861.00;4992982;28;20796;-75
2020/12/11 06:00:59;;;;;;;3.03;2.28;;;;;;;19.71;34.88;97856.56;4992902;28;20030;-74
2020/12/11 06:03:25;;;;;;;2.67;2.05;;;;;;;19.70;35.07;97852.25;4993999;28;20045;-76
2020/12/11 06:05:50;;;;;;;2.45;1.85;;;;;;;19.70;35.01;97859.31;4993466;28;20089;-75
2020/12/11 06:08:19;;;;;;;3.17;1.70;;;;;;;19.70;35.24;97857.50;4994067;28;20093;-73
2020/12/11 06:10:49;;;;;;;2.15;1.70;;;;;;;19.70;34.99;97843.53;4993922;28;20035;-74
2020/12/11 06:13:14;;;;;;;2.70;1.92;;;;;;;19.72;35.22;97862.69;5000672;28;20491;-74
2020/12/11 06:15:48;;;;;;;3.47;1.83;;;;;;;19.69;35.13;97852.34;5013044;28;20041;-75
2020/12/11 06:18:17;;;;;;;2.03;1.70;;;;;;;19.68;34.94;97859.41;5013304;28;20073;-77
2020/12/11 06:20:47;;;;;;;3.55;1.80;;;;;;;19.69;34.87;97847.09;5012807;28;20414;-73
2020/12/11 06:23:24;;;;;;;3.03;2.00;;;;;;;19.68;34.92;97842.78;5013415;28;20030;-74
2020/12/11 06:25:54;;;;;;;2.45;2.00;;;;;;;19.69;34.86;97845.34;5013056;28;20056;-73
2020/12/11 06:28:34;;;;;;;1.98;1.48;;;;;;;19.67;35.14;97831.44;5012013;28;20125;-73
2020/12/11 06:31:01;;;;;;;2.40;1.90;;;;;;;19.68;35.08;97829.63;5013081;28;20402;-73
2020/12/11 06:33:31;;;;;;;2.67;2.03;;;;;;;19.68;35.05;97830.50;4995433;28;20088;-74
2020/12/11 06:35:58;;;;;;;2.78;1.80;;;;;;;19.69;35.06;97834.81;5012854;28;20112;-75
2020/12/11 06:38:56;;;;;;;3.20;2.08;;;;;;;19.68;35.12;97838.38;5012048;28;20034;-75
2020/12/11 06:41:28;;;;;;;2.30;1.90;;;;;;;19.68;34.94;97835.75;4992960;28;20073;-74
2020/12/11 06:43:54;;;;;;;2.92;1.90;;;;;;;19.69;35.11;97831.34;4992832;28;20815;-74
2020/12/11 06:46:24;;;;;;;2.35;1.98;;;;;;;19.69;35.24;97823.44;4992997;28;20049;-74
2020/12/11 06:49:09;;;;;;;2.42;1.88;;;;;;;19.69;35.14;97828.69;4993023;28;20819;-74
2020/12/11 06:51:54;;;;;;;2.17;1.60;;;;;;;19.69;35.07;97819.06;4994296;28;20034;-75
2020/12/11 06:54:19;;;;;;;2.10;1.88;;;;;;;19.72;34.80;97818.03;4991181;28;20518;-79
2020/12/11 06:56:47;;;;;;;3.30;1.92;;;;;;;19.74;34.93;97814.38;4989653;28;20034;-76
2020/12/11 06:59:24;;;;;;;3.40;2.10;;;;;;;19.69;35.15;97813.81;4990767;28;20038;-73
2020/12/11 07:01:52;;;;;;;6.07;2.00;;;;;;;19.68;34.96;97817.38;4991343;28;20030;-71
2020/12/11 07:04:18;;;;;;;3.00;1.90;;;;;;;19.68;34.68;97813.88;4992746;28;20406;-77
2020/12/11 07:06:51;;;;;;;3.63;2.42;;;;;;;19.71;35.06;97819.78;4990994;28;20042;-72
2020/12/11 07:09:17;;;;;;;3.00;2.30;;;;;;;19.70;34.86;97807.59;4992558;28;20041;-75
2020/12/11 07:11:44;;;;;;;6.13;2.70;;;;;;;19.69;35.06;97810.31;4992569;28;20031;-71
2020/12/11 07:14:10;;;;;;;5.18;2.33;;;;;;;19.70;34.95;97812.00;4996851;28;20034;-74
2020/12/11 07:16:43;;;;;;;3.28;1.65;;;;;;;19.71;35.08;97813.69;5031806;28;20087;-74
2020/12/11 07:19:09;;;;;;;3.60;2.10;;;;;;;19.71;35.04;97801.41;5031560;28;20128;-76
2020/12/11 07:21:36;;;;;;;4.60;2.10;;;;;;;19.74;34.97;97797.78;5031399;28;20108;-74
2020/12/11 07:24:03;;;;;;;4.70;2.10;;;;;;;19.74;34.88;97795.97;5024459;28;20086;-76
2020/12/11 07:26:28;;;;;;;4.10;1.98;;;;;;;19.76;34.88;97798.53;5017249;28;20113;-73
2020/12/11 07:29:07;;;;;;;5.32;2.38;;;;;;;19.76;34.73;97795.91;5031859;28;20128;-75
2020/12/11 07:31:39;;;;;;;2.90;2.10;;;;;;;19.77;34.92;97794.97;5020261;28;20125;-76
2020/12/11 07:34:18;;;;;;;3.28;2.05;;;;;;;19.76;34.84;97795.91;5012053;28;20499;-74
2020/12/11 07:36:48;;;;;;;3.28;2.10;;;;;;;19.77;34.84;97792.34;5011916;28;20804;-75
2020/12/11 07:39:18;;;;;;;2.67;1.90;;;;;;;19.80;34.95;97788.69;5010650;28;20506;-74
2020/12/11 07:41:44;;;;;;;2.83;1.80;;;;;;;19.80;34.87;97781.63;4997044;28;20034;-73
2020/12/11 07:44:19;;;;;;;5.78;2.38;;;;;;;19.82;34.82;97792.06;4991697;28;20026;-76
2020/12/11 07:46:45;;;;;;;4.00;1.80;;;;;;;19.81;34.92;97790.38;5002905;28;20056;-75
2020/12/11 07:49:10;;;;;;;3.28;1.83;;;;;;;19.82;34.54;97786.81;5031824;28;20029;-74
2020/12/11 07:51:50;;;;;;;2.47;1.92;;;;;;;19.82;34.81;97781.56;5031134;28;20061;-75
2020/12/11 07:54:16;;;;;;;3.90;1.80;;;;;;;19.83;34.62;97780.63;5002279;28;20069;-74
2020/12/11 07:56:42;;;;;;;3.85;2.10;;;;;;;19.84;34.82;97784.94;4995023;28;20045;-75
2020/12/11 07:59:14;;;;;;;7.78;2.10;;;;;;;19.84;34.86;97782.31;4999020;28;20039;-77
2020/12/11 08:01:46;;;;;;;2.72;1.80;;;;;;;19.85;34.77;97781.38;5012356;28;20105;-73
2020/12/11 08:04:15;;;;;;;3.10;1.80;;;;;;;19.85;34.86;97770.88;5004307;28;20041;-73
2020/12/11 08:06:40;;;;;;;2.75;2.00;;;;;;;19.86;34.61;97768.16;5004923;28;20033;-75
2020/12/11 08:09:14;;;;;;;2.30;1.60;;;;;;;19.87;34.91;97769.88;4997957;28;20034;-74
2020/12/11 08:11:44;;;;;;;3.50;2.03;;;;;;;19.88;34.73;97766.31;4998543;28;20027;-74
2020/12/11 08:14:09;;;;;;;2.42;1.95;;;;;;;19.87;34.91;97758.50;4996860;28;20038;-76
2020/12/11 08:16:35;;;;;;;2.47;1.70;;;;;;;19.89;34.83;97760.13;4995655;28;20049;-74
2020/12/11 08:19:06;;;;;;;2.90;1.88;;;;;;;19.89;34.66;97752.22;4995870;28;20108;-74
2020/12/11 08:21:32;;;;;;;4.00;1.80;;;;;;;19.91;34.86;97746.88;4998760;28;20076;-77
2020/12/11 08:23:59;;;;;;;3.85;1.80;;;;;;;19.92;34.90;97738.06;5015537;28;20038;-74
2020/12/11 08:26:35;;;;;;;2.60;1.98;;;;;;;19.93;34.68;97747.63;5015482;28;20041;-74
2020/12/11 08:29:06;;;;;;;3.67;2.10;;;;;;;19.95;34.52;97745.75;5015445;28;20026;-74
2020/12/11 08:31:38;;;;;;;5.93;1.95;;;;;;;19.96;34.83;97738.72;5014605;28;20033;-73
2020/12/11 08:34:12;;;;;;;5.13;2.05;;;;;;;19.95;34.66;97732.63;5015448;28;20050;-74
2020/12/11 08:36:50;;;;;;;2.42;1.67;;;;;;;19.92;34.88;97732.81;5015253;28;20030;-74
2020/12/11 08:39:17;;;;;;;3.85;2.33;;;;;;;19.94;34.69;97728.31;5010567;28;20023;-74
2020/12/11 08:47:15;;;;;;;2.63;1.60;;;;;;;19.96;34.66;97725.56;4995338;28;20034;-75
2020/12/11 08:49:50;;;;;;;4.88;2.00;;;;;;;19.95;35.08;97722.09;4995409;28;20037;-74
2020/12/11 08:52:16;;;;;;;5.68;1.98;;;;;;;19.95;34.95;97721.25;5002428;28;20037;-75
2020/12/11 08:54:41;;;;;;;2.65;2.08;;;;;;;19.94;34.76;97717.78;5034878;28;20038;-74
2020/12/11 08:57:07;;;;;;;2.28;1.58;;;;;;;19.93;34.74;97719.56;5034827;28;20115;-75
2020/12/11 08:59:32;;;;;;;7.65;2.10;;;;;;;19.99;34.91;97722.75;5013939;28;20062;-75
2020/12/11 09:02:03;;;;;;;3.55;1.95;;;;;;;19.95;34.95;97708.97;4996832;28;20042;-76
2020/12/11 09:04:28;;;;;;;5.13;1.90;;;;;;;19.95;34.76;97716.84;4993530;28;20034;-76
2020/12/11 09:06:54;;;;;;;7.07;1.80;;;;;;;19.93;34.90;97706.41;4993872;28;20050;-76
2020/12/11 09:09:19;;;;;;;3.38;1.63;;;;;;;19.98;34.91;97710.56;4996412;28;20499;-75
2020/12/11 09:11:46;;;;;;;2.38;1.58;;;;;;;19.97;34.80;97703.59;4994291;28;20042;-76
2020/12/11 09:14:11;;;;;;;4.00;2.10;;;;;;;19.97;35.06;97701.84;4998105;28;20132;-76
2020/12/11 09:16:37;;;;;;;9.20;2.05;;;;;;;19.99;35.02;97709.63;5019761;28;20116;-76
2020/12/11 09:19:02;;;;;;;4.05;2.00;;;;;;;20.00;34.89;97711.31;4985625;28;20037;-78
2020/12/11 09:21:28;;;;;;;2.90;1.90;;;;;;;20.05;35.02;97712.72;5002263;28;20029;-76
2020/12/11 09:23:54;;;;;;;10.00;2.63;;;;;;;20.07;34.91;97704.75;4999278;28;20048;-74
2020/12/11 09:26:19;;;;;;;18.45;1.92;;;;;;;20.10;34.97;97703.72;5000761;28;20031;-75
2020/12/11 09:28:49;;;;;;;11.13;1.80;;;;;;;20.10;35.03;97701.94;4992943;28;20034;-74
2020/12/11 09:31:14;;;;;;;11.60;1.65;;;;;;;20.12;35.14;97701.84;4995478;28;20462;-75
2020/12/11 09:33:43;;;;;;;6.82;1.85;;;;;;;20.15;34.99;97704.31;5002278;28;20035;-73
2020/12/11 09:36:09;;;;;;;4.80;1.70;;;;;;;20.15;34.99;97705.13;4995691;28;20121;-76
2020/12/11 09:38:37;;;;;;;7.07;2.13;;;;;;;20.24;35.00;97701.09;4993415;28;20027;-76
2020/12/11 09:41:04;;;;;;;3.17;1.45;;;;;;;20.25;34.94;97700.16;5003639;28;20044;-75
2020/12/11 09:54:15;;;;;;;2.80;1.25;;;;;;;20.27;35.12;97693.03;4999937;28;20168;-74
2020/12/11 09:56:41;;;;;;;17.23;2.00;;;;;;;20.28;34.99;97678.94;4996854;28;20521;-75
2020/12/11 09:59:31;;;;;;;5.18;1.77;;;;;;;20.27;35.27;97674.63;5003344;28;20038;-74
2020/12/11 10:04:39;;;;;;;6.68;1.75;;;;;;;20.29;35.23;97669.25;4993137;28;20038;-75
2020/12/11 10:07:07;;;;;;;4.07;1.88;;;;;;;20.30;35.24;97661.28;5000394;28;20040;-76
2020/12/11 10:09:32;;;;;;;4.38;1.90;;;;;;;20.33;35.17;97665.50;5034272;28;20075;-75
2020/12/11 10:12:01;;;;;;;5.63;1.90;;;;;;;20.28;35.07;97655.28;5034003;28;20104;-77
2020/12/11 10:14:31;;;;;;;7.03;1.40;;;;;;;20.27;35.37;97657.97;5033438;28;20389;-75
2020/12/11 10:16:56;;;;;;;7.13;1.75;;;;;;;20.27;35.32;97645.69;5031954;28;20029;-77
2020/12/11 10:19:22;;;;;;;4.93;1.55;;;;;;;20.26;35.31;97651.88;5032642;28;20489;-75
2020/12/11 10:21:49;;;;;;;7.55;1.92;;;;;;;20.27;35.17;97643.06;5032850;28;20084;-73
2020/12/11 10:24:16;;;;;;;8.63;1.50;;;;;;;20.26;35.58;97643.13;5033227;28;20498;-76
2020/12/11 10:26:41;;;;;;;2.47;1.45;;;;;;;20.26;35.39;97637.88;5033348;28;20112;-74
2020/12/11 10:29:07;;;;;;;5.65;1.70;;;;;;;20.21;35.10;97635.53;5032952;28;20462;-77
2020/12/11 10:31:33;;;;;;;6.80;2.58;;;;;;;20.21;35.37;97630.28;4995624;28;20483;-75
2020/12/11 10:33:58;;;;;;;10.82;4.13;;;;;;;20.22;35.49;97631.97;4994466;28;20074;-73
2020/12/11 10:36:32;;;;;;;9.35;5.45;;;;;;;20.21;35.18;97625.88;4993615;28;20038;-78
2020/12/11 10:38:58;;;;;;;10.65;6.90;;;;;;;20.19;35.63;97624.28;4999231;28;20040;-73
2020/12/11 10:41:23;;;;;;;16.80;9.27;;;;;;;20.20;35.54;97626.81;4992784;28;20106;-74
2020/12/11 10:43:50;;;;;;;21.17;11.63;;;;;;;20.17;35.57;97619.13;4992346;28;20126;-75
2020/12/11 10:46:16;;;;;;;28.15;13.82;;;;;;;20.18;35.69;97619.94;5002867;28;20041;-77
2020/12/11 10:48:41;;;;;;;32.53;17.92;;;;;;;20.18;35.49;97615.56;5006756;28;20034;-73
2020/12/11 10:51:15;;;;;;;31.90;16.67;;;;;;;20.16;35.52;97612.16;5001238;28;20030;-75
2020/12/11 10:53:42;;;;;;;30.77;16.42;;;;;;;20.14;35.65;97606.16;5034874;28;20113;-76
2020/12/11 10:56:09;;;;;;;30.27;15.57;;;;;;;20.13;35.43;97603.63;5031807;28;20060;-74
2020/12/11 10:58:35;;;;;;;26.98;15.80;;;;;;;20.14;35.65;97600.06;5033206;28;20064;-75
2020/12/11 11:01:04;;;;;;;33.30;16.90;;;;;;;20.18;35.54;97605.03;5032762;28;20038;-76
2020/12/11 11:03:30;;;;;;;30.38;16.63;;;;;;;20.20;35.59;97597.91;5033883;28;20033;-76
2020/12/11 11:05:58;;;;;;;27.90;15.48;;;;;;;20.22;35.43;97590.75;5036620;28;20060;-77
2020/12/11 11:08:33;;;;;;;27.42;16.50;;;;;;;20.24;35.53;97580.13;5036209;28;20052;-77
2020/12/11 11:10:59;;;;;;;27.15;14.50;;;;;;;20.24;35.48;97580.13;5005826;28;20034;-76
2020/12/11 11:15:55;;;;;;;25.70;14.85;;;;;;;20.24;35.25;97570.44;5012492;28;20118;-75
2020/12/11 11:23:42;;;;;;;27.77;14.95;;;;;;;20.23;35.36;97574.06;5013193;28;20520;-75
2020/12/11 11:26:16;;;;;;;23.63;13.30;;;;;;;20.25;35.31;97571.31;5012025;28;20037;-74
2020/12/11 11:28:42;;;;;;;21.77;13.13;;;;;;;20.23;35.47;97563.53;5012025;28;20052;-75
2020/12/11 11:31:11;;;;;;;21.17;13.00;;;;;;;20.23;35.43;97562.66;5011160;28;20479;-74
2020/12/11 11:33:37;;;;;;;22.45;12.73;;;;;;;20.26;35.61;97564.25;5012258;28;20395;-76
2020/12/11 11:36:02;;;;;;;20.63;12.68;;;;;;;20.23;35.60;97549.53;5011848;28;20029;-75
2020/12/11 11:38:28;;;;;;;21.23;12.27;;;;;;;20.24;35.55;97557.31;5010386;28;20037;-77
2020/12/11 11:40:53;;;;;;;20.38;11.90;;;;;;;20.26;35.29;97548.47;5011673;28;20026;-77
2020/12/11 11:43:44;;;;;;;17.20;11.27;;;;;;;20.25;35.32;97542.38;5011332;28;20026;-74
2020/12/11 11:46:09;;;;;;;16.25;10.45;;;;;;;20.24;35.50;97545.94;5011846;28;20473;-73
2020/12/11 11:48:39;;;;;;;17.23;9.95;;;;;;;20.24;35.60;97541.53;5011834;28;20101;-74
2020/12/11 11:51:09;;;;;;;18.73;10.50;;;;;;;20.24;35.61;97535.44;5011739;28;20037;-72
2020/12/11 11:53:34;;;;;;;17.52;10.38;;;;;;;20.24;35.65;97527.53;4999046;28;20039;-75
2020/12/11 11:56:00;;;;;;;15.43;9.65;;;;;;;20.24;35.54;97530.19;4991455;28;20403;-74
2020/12/11 11:58:25;;;;;;;17.42;10.05;;;;;;;20.25;35.66;97526.59;4991951;28;20113;-78
2020/12/11 12:00:50;;;;;;;19.25;9.27;;;;;;;20.25;35.74;97523.97;4992101;28;20027;-75